createdAt,value
2023-04-11T00:00:57.611Z,20.30
2023-04-11T00:03:25.909Z,19.67
2023-04-11T00:05:53.954Z,18.30
2023-04-11T00:08:22.016Z,19.73
2023-04-11T00:10:49.945Z,19.33
2023-04-11T00:13:19.686Z,18.73
2023-04-11T00:15:47.761Z,17.00
2023-04-11T00:18:17.089Z,16.80
2023-04-11T00:20:44.964Z,18.53
2023-04-11T00:23:13.221Z,16.43
2023-04-11T00:25:41.394Z,16.77
2023-04-11T00:28:09.317Z,16.93
2023-04-11T00:30:37.347Z,15.90
2023-04-11T00:33:05.388Z,16.17
2023-04-11T00:35:37.698Z,15.77
2023-04-11T00:38:05.655Z,16.67
2023-04-11T00:40:33.560Z,16.23
2023-04-11T00:43:01.542Z,14.40
2023-04-11T00:45:29.483Z,15.60
2023-04-11T00:47:57.476Z,16.50
2023-04-11T00:50:26.012Z,16.63
2023-04-11T00:52:57.706Z,17.10
2023-04-11T00:55:25.813Z,17.40
2023-04-11T00:57:55.783Z,17.53
2023-04-11T01:00:24.559Z,17.27
2023-04-11T01:02:52.618Z,19.30
2023-04-11T01:05:22.210Z,16.30
2023-04-11T01:07:54.802Z,17.23
2023-04-11T01:10:24.767Z,18.23
2023-04-11T01:12:53.964Z,18.77
2023-04-11T01:15:22.053Z,17.80
2023-04-11T01:17:50.250Z,17.90
2023-04-11T01:20:18.474Z,18.73
2023-04-11T01:22:47.574Z,17.63
2023-04-11T01:25:17.034Z,17.07
2023-04-11T01:27:44.942Z,17.10
2023-04-11T01:30:13.490Z,17.40
2023-04-11T01:32:41.357Z,17.30
2023-04-11T01:35:11.328Z,17.20
2023-04-11T01:37:39.960Z,19.00
2023-04-11T01:40:09.788Z,16.90
2023-04-11T01:42:39.931Z,17.70
2023-04-11T01:45:09.560Z,16.50
2023-04-11T01:47:37.607Z,16.33
2023-04-11T01:50:06.940Z,16.67
2023-04-11T01:52:34.836Z,17.17
2023-04-11T01:55:04.177Z,17.83
2023-04-11T01:57:32.147Z,17.63
2023-04-11T02:00:01.517Z,18.13
2023-04-11T02:02:29.551Z,17.50
2023-04-11T02:04:58.171Z,17.50
2023-04-11T02:07:26.173Z,17.30
2023-04-11T02:09:54.058Z,16.67
2023-04-11T02:12:22.015Z,17.47
2023-04-11T02:14:49.955Z,16.57
2023-04-11T02:17:20.848Z,17.90
2023-04-11T02:19:49.379Z,17.73
2023-04-11T02:22:17.304Z,18.50
2023-04-11T02:24:46.429Z,17.67
2023-04-11T02:27:14.518Z,17.20
2023-04-11T02:29:42.342Z,18.10
2023-04-11T02:32:10.554Z,18.30
2023-04-11T02:34:41.352Z,16.30
2023-04-11T02:37:09.391Z,17.50
2023-04-11T02:39:37.278Z,17.27
2023-04-11T02:42:05.447Z,16.30
2023-04-11T02:44:33.777Z,15.80
2023-04-11T02:47:02.329Z,17.07
2023-04-11T02:49:30.789Z,17.23
2023-04-11T02:52:01.443Z,20.10
2023-04-11T02:54:29.403Z,17.50
2023-04-11T02:57:02.159Z,17.10
2023-04-11T02:59:30.609Z,16.27
2023-04-11T03:02:00.543Z,18.20
2023-04-11T03:04:29.273Z,16.73
2023-04-11T03:07:14.491Z,16.17
2023-04-11T03:09:43.246Z,16.30
2023-04-11T03:12:11.309Z,16.17
2023-04-11T03:14:49.188Z,16.20
2023-04-11T03:17:17.272Z,15.20
2023-04-11T03:19:45.241Z,15.97
2023-04-11T03:22:14.647Z,16.60
2023-04-11T03:24:42.795Z,15.63
2023-04-11T03:27:10.765Z,16.47
2023-04-11T03:29:42.036Z,16.00
2023-04-11T03:32:16.623Z,15.10
2023-04-11T03:34:44.572Z,15.43
2023-04-11T03:37:15.020Z,20.30
2023-04-11T03:39:42.901Z,17.07
2023-04-11T03:42:12.603Z,15.70
2023-04-11T03:44:40.769Z,17.60
2023-04-11T03:47:08.826Z,15.37
2023-04-11T03:49:41.713Z,14.47
2023-04-11T03:52:11.485Z,16.10
2023-04-11T03:54:42.387Z,16.13
2023-04-11T03:57:11.826Z,16.13
2023-04-11T03:59:40.351Z,15.20
2023-04-11T04:02:10.988Z,15.40
2023-04-11T04:04:47.169Z,15.80
2023-04-11T04:07:28.905Z,15.00
2023-04-11T04:10:09.577Z,16.80
2023-04-11T04:12:37.534Z,15.57
2023-04-11T04:15:14.804Z,15.27
2023-04-11T04:17:45.237Z,15.90
2023-04-11T04:20:19.200Z,15.27
2023-04-11T04:22:53.907Z,15.50
2023-04-11T04:25:31.746Z,16.70
2023-04-11T04:28:01.030Z,15.43
2023-04-11T04:30:37.990Z,15.40
2023-04-11T04:33:12.342Z,14.23
2023-04-11T04:35:44.317Z,14.10
2023-04-11T04:38:17.834Z,13.90
2023-04-11T04:40:56.372Z,16.60
2023-04-11T04:43:27.219Z,13.63
2023-04-11T04:46:03.368Z,15.37
2023-04-11T04:48:40.122Z,14.47
2023-04-11T04:51:09.116Z,15.30
2023-04-11T04:53:38.767Z,15.47
2023-04-11T04:56:10.967Z,15.00
2023-04-11T04:58:42.088Z,15.90
2023-04-11T05:01:13.528Z,16.67
2023-04-11T05:03:41.760Z,15.53
2023-04-11T05:06:15.008Z,16.83
2023-04-11T05:08:46.477Z,15.93
2023-04-11T05:11:16.844Z,16.27
2023-04-11T05:13:44.708Z,16.03
2023-04-11T05:16:12.713Z,16.10
2023-04-11T05:18:40.824Z,17.63
2023-04-11T05:21:08.967Z,16.87
2023-04-11T05:23:41.868Z,17.00
2023-04-11T05:26:10.483Z,16.50
2023-04-11T05:28:41.524Z,16.50
2023-04-11T05:31:13.825Z,16.60
2023-04-11T05:33:42.166Z,16.47
2023-04-11T05:36:13.929Z,15.53
2023-04-11T05:38:42.221Z,15.80
2023-04-11T05:41:10.459Z,15.10
2023-04-11T05:43:38.402Z,16.13
2023-04-11T05:46:09.053Z,14.60
2023-04-11T05:48:38.181Z,15.77
2023-04-11T05:51:06.632Z,16.00
2023-04-11T05:53:35.348Z,16.43
2023-04-11T05:56:03.881Z,15.63
2023-04-11T05:58:31.778Z,16.63
2023-04-11T06:01:00.749Z,22.23
2023-04-11T06:03:30.107Z,15.53
2023-04-11T06:05:58.071Z,17.60
2023-04-11T06:08:25.953Z,16.20
2023-04-11T06:10:53.881Z,16.33
2023-04-11T06:13:21.732Z,17.57
2023-04-11T06:15:49.899Z,16.10
2023-04-11T06:18:17.761Z,16.57
2023-04-11T06:20:48.885Z,16.27
2023-04-11T06:23:16.814Z,17.00
2023-04-11T06:25:44.690Z,15.47
2023-04-11T06:28:12.583Z,15.53
2023-04-11T06:30:40.422Z,14.90
2023-04-11T06:33:08.372Z,13.00
2023-04-11T06:35:36.912Z,13.43
2023-04-11T06:38:06.181Z,12.43
2023-04-11T06:40:35.395Z,12.90
2023-04-11T06:43:03.264Z,12.67
2023-04-11T06:45:32.018Z,11.20
2023-04-11T06:47:59.988Z,13.40
2023-04-11T06:50:28.045Z,13.00
2023-04-11T06:52:58.265Z,13.50
2023-04-11T06:55:27.522Z,12.70
2023-04-11T06:57:55.586Z,12.90
2023-04-11T07:00:24.041Z,13.10
2023-04-11T07:02:52.579Z,15.03
2023-04-11T07:05:20.809Z,12.87
2023-04-11T07:07:48.832Z,11.63
2023-04-11T07:10:16.744Z,12.47
2023-04-11T07:12:45.978Z,11.43
2023-04-11T07:15:13.856Z,11.87
2023-04-11T07:17:41.731Z,12.70
2023-04-11T07:20:11.126Z,12.67
2023-04-11T07:22:42.415Z,12.63
2023-04-11T07:25:10.617Z,13.80
2023-04-11T07:27:38.900Z,14.73
2023-04-11T07:30:09.757Z,14.87
2023-04-11T07:32:37.632Z,14.77
2023-04-11T07:35:06.035Z,15.90
2023-04-11T07:37:33.889Z,15.70
2023-04-11T07:40:04.514Z,14.80
2023-04-11T07:42:32.504Z,17.03
2023-04-11T07:45:00.353Z,15.90
2023-04-11T07:47:29.729Z,16.07
2023-04-11T07:49:58.568Z,13.10
2023-04-11T07:52:27.027Z,13.53
2023-04-11T07:54:55.834Z,12.60
2023-04-11T07:57:23.743Z,13.10
2023-04-11T07:59:51.895Z,12.10
2023-04-11T08:02:19.885Z,12.63
2023-04-11T08:04:49.434Z,11.60
2023-04-11T08:07:17.498Z,11.30
2023-04-11T08:09:45.392Z,12.20
2023-04-11T08:12:13.268Z,11.20
2023-04-11T08:14:41.133Z,12.93
2023-04-11T08:17:21.119Z,12.03
2023-04-11T08:19:57.470Z,11.70
2023-04-11T08:22:26.004Z,12.00
2023-04-11T08:24:53.910Z,11.47
2023-04-11T08:27:21.933Z,13.07
2023-04-11T08:29:49.755Z,13.20
2023-04-11T08:32:17.671Z,12.00
2023-04-11T08:34:45.564Z,13.60
2023-04-11T08:37:14.901Z,13.43
2023-04-11T08:39:42.753Z,11.43
2023-04-11T08:42:23.495Z,12.93
2023-04-11T08:44:54.561Z,14.03
2023-04-11T08:47:22.634Z,17.20
2023-04-11T08:49:51.124Z,17.40
2023-04-11T08:52:21.392Z,14.97
2023-04-11T08:54:50.127Z,16.67
2023-04-11T08:57:28.343Z,15.53
2023-04-11T08:59:57.650Z,15.67
2023-04-11T09:02:25.667Z,16.10
2023-04-11T09:04:54.611Z,14.80
2023-04-11T09:07:23.913Z,15.07
2023-04-11T09:09:51.921Z,14.20
2023-04-11T09:12:29.617Z,14.50
2023-04-11T09:14:57.874Z,13.93
2023-04-11T09:17:25.924Z,15.47
2023-04-11T09:19:53.976Z,13.83
2023-04-11T09:22:36.501Z,14.80
2023-04-11T09:25:04.823Z,14.33
2023-04-11T09:27:32.707Z,14.47
2023-04-11T09:30:03.681Z,14.37
2023-04-11T09:32:34.008Z,15.77
2023-04-11T09:35:09.617Z,16.83
2023-04-11T09:37:46.756Z,16.40
2023-04-11T09:40:16.647Z,17.07
2023-04-11T09:42:46.021Z,16.27
2023-04-11T09:45:19.456Z,15.27
2023-04-11T09:47:49.013Z,16.43
2023-04-11T09:50:17.504Z,17.63
2023-04-11T09:52:47.495Z,16.97
2023-04-11T09:55:16.848Z,17.03
2023-04-11T09:57:47.477Z,16.80
2023-04-11T10:00:18.067Z,17.30
2023-04-11T10:02:48.978Z,18.30
2023-04-11T10:05:18.943Z,17.40
2023-04-11T10:07:50.463Z,16.40
2023-04-11T10:10:21.054Z,17.13
2023-04-11T10:12:50.219Z,16.80
2023-04-11T10:15:19.019Z,17.43
2023-04-11T10:18:14.078Z,17.90
2023-04-11T10:20:44.812Z,17.30
2023-04-11T10:23:16.038Z,17.37
2023-04-11T10:25:52.503Z,18.60
2023-04-11T10:28:38.765Z,16.53
2023-04-11T10:31:09.952Z,17.80
2023-04-11T10:33:39.676Z,17.20
2023-04-11T10:36:10.251Z,18.27
2023-04-11T10:38:51.190Z,18.17
2023-04-11T10:41:31.795Z,16.13
2023-04-11T10:44:15.708Z,17.40
2023-04-11T10:46:51.891Z,15.93
2023-04-11T10:49:37.627Z,13.70
2023-04-11T10:52:20.578Z,13.80
2023-04-11T10:54:50.849Z,14.33
2023-04-11T10:57:19.339Z,15.50
2023-04-11T11:00:13.121Z,16.37
2023-04-11T11:02:42.500Z,12.90
2023-04-11T11:05:21.922Z,12.03
2023-04-11T11:07:51.722Z,13.33
2023-04-11T11:10:41.537Z,12.73
2023-04-11T11:13:09.838Z,14.80
2023-04-11T11:15:38.589Z,13.40
2023-04-11T11:18:09.470Z,12.50
2023-04-11T11:20:37.938Z,12.27
2023-04-11T11:23:07.742Z,11.67
2023-04-11T11:25:36.267Z,14.50
2023-04-11T11:28:06.726Z,14.77
2023-04-11T11:30:35.392Z,15.00
2023-04-11T11:33:16.045Z,14.47
2023-04-11T11:35:46.429Z,14.33
2023-04-11T11:38:14.571Z,15.27
2023-04-11T11:40:42.512Z,14.80
2023-04-11T11:43:12.162Z,14.80
2023-04-11T11:45:40.239Z,14.97
2023-04-11T11:48:08.364Z,16.50
2023-04-11T11:50:36.302Z,17.17
2023-04-11T11:53:14.379Z,17.80
2023-04-11T11:55:43.381Z,19.00
2023-04-11T11:58:12.616Z,21.87
2023-04-11T12:00:41.581Z,20.20
2023-04-11T12:03:10.952Z,21.07
2023-04-11T12:05:39.472Z,20.13
2023-04-11T12:08:08.963Z,22.10
2023-04-11T12:10:39.386Z,21.33
2023-04-11T12:13:19.925Z,18.97
2023-04-11T12:15:51.801Z,19.23
2023-04-11T12:18:21.723Z,19.67
2023-04-11T12:20:49.793Z,18.60
2023-04-11T12:23:17.939Z,19.87
2023-04-11T12:25:46.685Z,20.00
2023-04-11T12:28:14.970Z,18.80
2023-04-11T12:30:44.278Z,19.33
2023-04-11T12:33:12.152Z,22.93
2023-04-11T12:35:40.117Z,26.20
2023-04-11T12:38:08.196Z,20.17
2023-04-11T12:40:36.230Z,20.30
2023-04-11T12:43:04.112Z,22.10
2023-04-11T12:45:33.180Z,21.57
2023-04-11T12:48:02.652Z,21.53
2023-04-11T12:50:30.623Z,22.00
2023-04-11T12:52:58.707Z,19.13
2023-04-11T12:55:26.824Z,19.03
2023-04-11T12:57:54.733Z,19.13
2023-04-11T13:00:23.133Z,16.57
2023-04-11T13:02:51.218Z,16.83
2023-04-11T13:05:20.574Z,17.47
2023-04-11T13:07:48.743Z,16.67
2023-04-11T13:10:17.067Z,16.90
2023-04-11T13:12:46.374Z,17.67
2023-04-11T13:15:16.215Z,18.03
2023-04-11T13:17:44.705Z,19.00
2023-04-11T13:20:13.609Z,20.60
2023-04-11T13:22:44.263Z,20.47
2023-04-11T13:25:13.027Z,19.30
2023-04-11T13:27:42.255Z,19.00
2023-04-11T13:30:11.199Z,21.07
2023-04-11T13:32:39.341Z,20.73
2023-04-11T13:35:08.236Z,28.20
2023-04-11T13:37:36.249Z,20.17
2023-04-11T13:40:08.434Z,20.87
2023-04-11T13:42:36.614Z,22.43
2023-04-11T13:45:05.514Z,23.33
2023-04-11T13:47:34.739Z,20.90
2023-04-11T13:50:04.126Z,21.33
2023-04-11T13:52:32.000Z,21.13
2023-04-11T13:54:59.927Z,21.67
2023-04-11T13:57:29.278Z,22.00
2023-04-11T13:59:57.309Z,20.90
2023-04-11T14:02:25.258Z,20.60
2023-04-11T14:04:53.550Z,22.37
2023-04-11T14:07:21.428Z,21.80
2023-04-11T14:09:49.273Z,22.60
2023-04-11T14:12:17.131Z,24.30
2023-04-11T14:14:46.293Z,22.70
2023-04-11T14:17:14.157Z,22.27
2023-04-11T14:19:42.327Z,23.10
2023-04-11T14:22:10.724Z,22.37
2023-04-11T14:24:38.669Z,22.97
2023-04-11T14:27:06.600Z,20.90
2023-04-11T14:29:35.135Z,20.43
2023-04-11T14:32:05.286Z,18.60
2023-04-11T14:34:33.394Z,19.40
2023-04-11T14:37:01.286Z,19.60
2023-04-11T14:39:29.290Z,19.30
2023-04-11T14:41:57.160Z,20.87
2023-04-11T14:44:25.064Z,21.77
2023-04-11T14:46:52.943Z,25.40
2023-04-11T14:49:22.265Z,25.60
2023-04-11T14:51:50.206Z,21.30
2023-04-11T14:54:18.111Z,21.00
2023-04-11T14:56:47.518Z,20.80
2023-04-11T14:59:15.488Z,18.60
2023-04-11T15:01:43.495Z,18.80
2023-04-11T15:04:11.608Z,18.43
2023-04-11T15:06:40.938Z,18.70
2023-04-11T15:09:09.448Z,18.13
2023-04-11T15:11:37.533Z,16.30
2023-04-11T15:14:05.582Z,14.33
2023-04-11T15:16:33.397Z,14.60
2023-04-11T15:19:01.308Z,14.20
2023-04-11T15:21:32.566Z,16.03
2023-04-11T15:24:06.509Z,14.30
2023-04-11T15:26:34.536Z,13.97
2023-04-11T15:29:02.397Z,12.10
2023-04-11T15:31:30.707Z,12.07
2023-04-11T15:34:01.356Z,9.60
2023-04-11T15:36:32.132Z,9.00
2023-04-11T15:39:01.691Z,10.20
2023-04-11T15:41:30.552Z,8.90
2023-04-11T15:44:00.451Z,8.40
2023-04-11T15:46:29.128Z,8.90
2023-04-11T15:48:56.949Z,9.23
2023-04-11T15:51:24.989Z,11.13
2023-04-11T15:53:52.824Z,11.50
2023-04-11T15:56:22.327Z,12.30
2023-04-11T15:58:50.393Z,11.43
2023-04-11T16:01:23.029Z,10.20
2023-04-11T16:03:51.702Z,10.63
2023-04-11T16:06:20.010Z,10.83
2023-04-11T16:08:47.889Z,10.60
2023-04-11T16:11:15.766Z,12.53
2023-04-11T16:13:45.118Z,12.57
2023-04-11T16:16:12.991Z,10.83
2023-04-11T16:18:40.967Z,11.43
2023-04-11T16:21:13.709Z,10.97
2023-04-11T16:23:42.169Z,10.23
2023-04-11T16:26:10.711Z,11.47
2023-04-11T16:28:38.689Z,15.10
2023-04-11T16:31:09.260Z,11.77
2023-04-11T16:33:37.251Z,10.63
2023-04-11T16:36:05.682Z,9.87
2023-04-11T16:38:33.598Z,11.17
2023-04-11T16:41:01.542Z,11.60
2023-04-11T16:43:29.345Z,11.70
2023-04-11T16:45:57.555Z,12.43
2023-04-11T16:48:27.109Z,11.97
2023-04-11T16:50:54.960Z,11.00
2023-04-11T16:53:22.838Z,9.40
2023-04-11T16:55:52.554Z,7.80
2023-04-11T16:58:20.482Z,7.40
2023-04-11T17:00:49.164Z,5.53
2023-04-11T17:03:18.156Z,4.00
2023-04-11T17:05:47.538Z,4.00
2023-04-11T17:08:15.690Z,3.90
2023-04-11T17:10:44.098Z,3.70
2023-04-11T17:13:12.758Z,4.10
2023-04-11T17:15:41.035Z,4.20
2023-04-11T17:18:09.056Z,4.57
2023-04-11T17:20:37.141Z,3.80
2023-04-11T17:23:06.500Z,3.80
2023-04-11T17:25:34.397Z,4.30
2023-04-11T17:28:02.423Z,5.50
2023-04-11T17:30:31.764Z,4.50
2023-04-11T17:33:00.208Z,5.67
2023-04-11T17:35:28.385Z,10.57
2023-04-11T17:37:56.307Z,6.30
2023-04-11T17:40:25.537Z,5.40
2023-04-11T17:42:53.525Z,5.90
2023-04-11T17:45:22.609Z,6.63
2023-04-11T17:47:51.027Z,6.27
2023-04-11T17:50:20.042Z,6.73
2023-04-11T17:52:48.514Z,7.50
2023-04-11T17:55:17.997Z,6.13
2023-04-11T17:57:49.028Z,6.90
2023-04-11T18:00:23.151Z,6.87
2023-04-11T18:02:52.888Z,7.10
2023-04-11T18:05:25.165Z,7.20
2023-04-11T18:07:56.385Z,6.80
2023-04-11T18:10:25.884Z,7.37
2023-04-11T18:12:57.482Z,7.30
2023-04-11T18:15:26.833Z,7.00
2023-04-11T18:17:55.109Z,7.10
2023-04-11T18:20:23.014Z,7.17
2023-04-11T18:22:54.858Z,7.47
2023-04-11T18:25:23.403Z,6.43
2023-04-11T18:27:51.499Z,5.50
2023-04-11T18:30:21.032Z,6.30
2023-04-11T18:32:50.957Z,5.50
2023-04-11T18:35:19.408Z,6.40
2023-04-11T18:37:47.438Z,5.87
2023-04-11T18:40:15.937Z,5.83
2023-04-11T18:42:46.458Z,6.80
2023-04-11T18:45:15.562Z,5.00
2023-04-11T18:47:46.223Z,6.03
2023-04-11T18:50:15.099Z,6.20
2023-04-11T18:52:44.748Z,7.67
2023-04-11T18:55:13.413Z,6.63
2023-04-11T18:57:43.297Z,7.03
2023-04-11T19:00:18.577Z,6.50
2023-04-11T19:02:50.608Z,6.90
2023-04-11T19:05:19.281Z,5.33
2023-04-11T19:07:47.514Z,4.93
2023-04-11T19:10:15.443Z,3.60
2023-04-11T19:12:43.550Z,2.93
2023-04-11T19:15:12.881Z,2.97
2023-04-11T19:17:41.217Z,3.20
2023-04-11T19:20:13.576Z,2.87
2023-04-11T19:22:41.993Z,2.77
2023-04-11T19:25:12.122Z,2.93
2023-04-11T19:27:42.052Z,3.37
2023-04-11T19:30:13.509Z,3.30
2023-04-11T19:32:43.708Z,2.90
2023-04-11T19:35:13.428Z,4.00
2023-04-11T19:37:41.845Z,4.83
2023-04-11T19:40:13.475Z,4.60
2023-04-11T19:42:41.862Z,4.93
2023-04-11T19:45:10.666Z,4.60
2023-04-11T19:47:39.728Z,4.63
2023-04-11T19:50:08.910Z,4.60
2023-04-11T19:52:38.267Z,5.20
2023-04-11T19:55:07.608Z,6.10
2023-04-11T19:57:36.362Z,5.90
2023-04-11T20:00:11.489Z,5.30
2023-04-11T20:02:39.927Z,5.20
2023-04-11T20:05:09.143Z,5.10
2023-04-11T20:07:39.029Z,5.80
2023-04-11T20:10:08.242Z,5.43
2023-04-11T20:12:36.274Z,5.77
2023-04-11T20:15:04.391Z,5.17
2023-04-11T20:17:32.268Z,4.77
2023-04-11T20:20:05.551Z,5.13
2023-04-11T20:22:33.479Z,6.23
2023-04-11T20:25:03.700Z,6.77
2023-04-11T20:27:31.600Z,7.57
2023-04-11T20:30:00.610Z,5.00
2023-04-11T20:32:29.154Z,4.47
2023-04-11T20:34:57.804Z,4.27
2023-04-11T20:37:25.787Z,3.57
2023-04-11T20:39:53.682Z,3.90
2023-04-11T20:42:22.998Z,4.00
2023-04-11T20:44:51.041Z,3.00
2023-04-11T20:47:19.051Z,3.07
2023-04-11T20:49:49.689Z,3.13
2023-04-11T20:52:18.280Z,3.63
2023-04-11T20:54:46.535Z,4.13
2023-04-11T20:57:14.456Z,4.67
2023-04-11T20:59:43.676Z,3.93
2023-04-11T21:02:11.625Z,4.17
2023-04-11T21:04:39.529Z,3.50
2023-04-11T21:07:07.718Z,3.10
2023-04-11T21:09:36.388Z,3.77
2023-04-11T21:12:04.909Z,3.70
2023-04-11T21:14:33.192Z,3.03
2023-04-11T21:17:02.486Z,2.63
2023-04-11T21:19:30.395Z,2.37
2023-04-11T21:21:58.362Z,2.30
2023-04-11T21:24:26.935Z,2.63
2023-04-11T21:26:54.876Z,2.43
2023-04-11T21:29:22.666Z,2.97
2023-04-11T21:31:50.627Z,2.63
2023-04-11T21:34:20.075Z,2.63
2023-04-11T21:36:47.995Z,2.70
2023-04-11T21:39:15.814Z,2.70
2023-04-11T21:41:43.724Z,2.50
2023-04-11T21:44:11.550Z,2.27
2023-04-11T21:46:39.528Z,2.70
2023-04-11T21:49:07.473Z,3.20
2023-04-11T21:51:36.675Z,2.87
2023-04-11T21:54:05.064Z,2.60
2023-04-11T21:56:33.014Z,2.80
2023-04-11T21:59:00.940Z,3.00
2023-04-11T22:01:29.193Z,3.10
2023-04-11T22:03:58.898Z,3.00
2023-04-11T22:06:30.354Z,2.90
2023-04-11T22:09:01.457Z,2.70
2023-04-11T22:11:29.613Z,3.20
2023-04-11T22:13:58.307Z,2.90
2023-04-11T22:16:30.681Z,3.30
2023-04-11T22:19:00.447Z,2.97
2023-04-11T22:21:32.446Z,3.07
2023-04-11T22:24:02.160Z,3.20
2023-04-11T22:26:34.139Z,2.93
2023-04-11T22:29:05.122Z,3.00
2023-04-11T22:31:34.706Z,2.97
2023-04-11T22:34:02.752Z,3.37
2023-04-11T22:36:35.694Z,2.93
2023-04-11T22:39:05.652Z,3.73
2023-04-11T22:41:34.041Z,3.37
2023-04-11T22:44:02.523Z,3.20
2023-04-11T22:46:32.206Z,3.30
2023-04-11T22:49:00.178Z,3.40
2023-04-11T22:51:30.085Z,3.30
2023-04-11T22:53:58.721Z,3.00
2023-04-11T22:56:28.179Z,3.00
2023-04-11T22:58:56.035Z,3.70
2023-04-11T23:01:23.958Z,3.67
2023-04-11T23:03:51.945Z,3.33
2023-04-11T23:06:19.772Z,3.43
2023-04-11T23:08:47.720Z,3.40
2023-04-11T23:11:15.594Z,3.20
2023-04-11T23:13:44.894Z,3.43
2023-04-11T23:16:13.259Z,3.63
2023-04-11T23:18:41.174Z,3.50
2023-04-11T23:21:13.164Z,3.40
2023-04-11T23:23:41.622Z,3.83
2023-04-11T23:26:10.841Z,3.33
2023-04-11T23:28:38.730Z,3.27
2023-04-11T23:31:08.217Z,3.77
2023-04-11T23:33:36.212Z,4.07
2023-04-11T23:36:04.357Z,3.87
2023-04-11T23:38:32.677Z,3.60
2023-04-11T23:41:00.622Z,3.97
2023-04-11T23:43:28.486Z,4.23
2023-04-11T23:45:56.501Z,3.63
2023-04-11T23:48:26.072Z,4.10
2023-04-11T23:50:53.997Z,3.70
2023-04-11T23:53:21.977Z,3.80
2023-04-11T23:55:49.907Z,4.00
2023-04-11T23:58:18.017Z,4.40
